Time,TemperatureF,DewpointF,PressureIn,WindDirection,WindDirectionDegrees,WindSpeedMPH,WindSpeedGustMPH,Humidity,HourlyPrecipIn,Conditions,Clouds,dailyrainin,SoftwareType,DateUTC
2013-08-01 00:04:00,66.7,66.1,29.84,WSW,247,0.0,-999.0,98,-99.99,,,0.00,Acu-Link.com,2013-08-01 04:04:00,
2013-08-01 00:19:00,66.7,66.1,29.83,WSW,247,0.0,-999.0,98,-99.99,,,0.01,Acu-Link.com,2013-08-01 04:19:00,
2013-08-01 00:34:00,66.6,66.0,29.83,ESE,112,0.0,-999.0,98,-99.99,,,0.02,Acu-Link.com,2013-08-01 04:34:00,
2013-08-01 00:49:00,66.6,66.0,29.83,West,270,0.0,-999.0,98,-99.99,,,0.02,Acu-Link.com,2013-08-01 04:49:00,
2013-08-01 01:04:00,66.6,66.0,29.82,ESE,112,0.0,-999.0,98,-99.99,,,0.02,Acu-Link.com,2013-08-01 05:04:00,
2013-08-01 01:19:00,66.6,66.0,29.81,South,180,0.0,-999.0,98,-99.99,,,0.02,Acu-Link.com,2013-08-01 05:19:00,
2013-08-01 01:35:00,66.4,65.8,29.81,WSW,247,0.0,-999.0,98,-99.99,,,0.02,Acu-Link.com,2013-08-01 05:35:00,
2013-08-01 01:50:00,66.4,65.8,29.81,SE,135,0.0,-999.0,98,-99.99,,,0.02,Acu-Link.com,2013-08-01 05:50:00,
2013-08-01 02:05:00,66.2,65.6,29.80,NE,45,0.0,-999.0,98,-99.99,,,0.02,Acu-Link.com,2013-08-01 06:05:00,
2013-08-01 02:20:00,66.2,65.6,29.80,ESE,112,0.0,-999.0,98,-99.99,,,0.02,Acu-Link.com,2013-08-01 06:20:00,
2013-08-01 02:35:00,66.4,65.8,29.80,ESE,112,0.0,-999.0,98,-99.99,,,0.02,Acu-Link.com,2013-08-01 06:35:00,
2013-08-01 02:50:00,66.4,65.8,29.78,ESE,112,0.0,-999.0,98,-99.99,,,0.02,Acu-Link.com,2013-08-01 06:50:00,
2013-08-01 03:05:00,66.6,66.0,29.78,West,270,0.0,-999.0,98,-99.99,,,0.02,Acu-Link.com,2013-08-01 07:05:00,
2013-08-01 03:20:00,66.4,65.8,29.76,WSW,247,0.0,-999.0,98,-99.99,,,0.02,Acu-Link.com,2013-08-01 07:20:00,
2013-08-01 03:35:00,66.4,65.8,29.75,ENE,67,0.0,-999.0,98,-99.99,,,0.02,Acu-Link.com,2013-08-01 07:35:00,
2013-08-01 03:51:00,66.4,65.8,29.76,SSW,202,0.0,-999.0,98,-99.99,,,0.02,Acu-Link.com,2013-08-01 07:51:00,
2013-08-01 04:21:00,66.4,65.8,29.75,SSW,202,0.0,-999.0,98,-99.99,,,0.02,Acu-Link.com,2013-08-01 08:21:00,
2013-08-01 04:37:00,66.4,65.8,29.74,SE,135,0.0,-999.0,98,-99.99,,,0.02,Acu-Link.com,2013-08-01 08:37:00,
2013-08-01 05:07:00,66.0,65.4,29.74,NE,45,0.0,-999.0,98,-99.99,,,0.03,Acu-Link.com,2013-08-01 09:07:00,
2013-08-01 05:22:00,65.8,65.2,29.75,WSW,247,0.0,-999.0,98,-99.99,,,0.04,Acu-Link.com,2013-08-01 09:22:00,
2013-08-01 05:37:00,65.8,65.2,29.74,ENE,67,0.0,-999.0,98,-99.99,,,0.04,Acu-Link.com,2013-08-01 09:37:00,
2013-08-01 05:52:00,66.0,65.4,29.74,ESE,112,0.0,-999.0,98,-99.99,,,0.04,Acu-Link.com,2013-08-01 09:52:00,
2013-08-01 06:07:00,66.0,65.4,29.74,ESE,112,0.0,-999.0,98,-99.99,,,0.04,Acu-Link.com,2013-08-01 10:07:00,
2013-08-01 06:23:00,66.2,65.6,29.75,ESE,112,0.0,-999.0,98,-99.99,,,0.04,Acu-Link.com,2013-08-01 10:23:00,
2013-08-01 06:38:00,66.2,65.6,29.75,ESE,112,0.0,-999.0,98,-99.99,,,0.04,Acu-Link.com,2013-08-01 10:38:00,
2013-08-01 06:53:00,66.2,65.6,29.75,NW,315,0.0,-999.0,98,-99.99,,,0.04,Acu-Link.com,2013-08-01 10:53:00,
2013-08-01 07:23:00,66.6,66.0,29.75,South,180,0.0,-999.0,98,-99.99,,,0.04,Acu-Link.com,2013-08-01 11:23:00,
2013-08-01 07:53:00,67.1,66.5,29.75,West,270,0.0,-999.0,98,-99.99,,,0.04,Acu-Link.com,2013-08-01 11:53:00,
2013-08-01 08:08:00,67.8,67.2,29.76,ESE,112,0.0,-999.0,98,-99.99,,,0.04,Acu-Link.com,2013-08-01 12:08:00,
2013-08-01 08:23:00,69.3,68.7,29.76,SW,225,0.0,-999.0,98,-99.99,,,0.04,Acu-Link.com,2013-08-01 12:23:00,
2013-08-01 08:39:00,70.2,69.6,29.76,ENE,67,0.0,-999.0,98,-99.99,,,0.04,Acu-Link.com,2013-08-01 12:39:00,
2013-08-01 08:54:00,70.7,70.1,29.76,SSE,157,0.0,-999.0,98,-99.99,,,0.04,Acu-Link.com,2013-08-01 12:54:00,
2013-08-01 09:09:00,70.9,70.3,29.76,ESE,112,0.0,-999.0,98,-99.99,,,0.04,Acu-Link.com,2013-08-01 13:09:00,
2013-08-01 09:24:00,72.1,71.5,29.76,WSW,247,0.0,-999.0,98,-99.99,,,0.04,Acu-Link.com,2013-08-01 13:24:00,
2013-08-01 09:39:00,73.9,73.3,29.76,SSW,202,0.0,-999.0,98,-99.99,,,0.04,Acu-Link.com,2013-08-01 13:39:00,
2013-08-01 10:09:00,75.6,75.0,29.75,West,270,0.0,-999.0,98,-99.99,,,0.04,Acu-Link.com,2013-08-01 14:09:00,
2013-08-01 10:24:00,75.9,75.3,29.75,NW,315,3.7,-999.0,98,-99.99,,,0.04,Acu-Link.com,2013-08-01 14:24:00,
2013-08-01 11:25:00,78.6,78.0,29.75,NE,45,0.0,-999.0,98,-99.99,,,0.04,Acu-Link.com,2013-08-01 15:25:00,
2013-08-01 11:40:00,82.0,81.4,29.75,SSE,157,3.2,-999.0,98,-99.99,,,0.04,Acu-Link.com,2013-08-01 15:40:00,
2013-08-01 12:10:00,82.9,82.3,29.74,ESE,112,2.7,-999.0,98,-99.99,,,0.04,Acu-Link.com,2013-08-01 16:10:00,
2013-08-01 12:25:00,81.5,80.9,29.74,North,0,2.7,-999.0,98,-99.99,,,0.04,Acu-Link.com,2013-08-01 16:25:00,
2013-08-01 12:40:00,81.0,80.4,29.73,NW,315,3.2,-999.0,98,-99.99,,,0.04,Acu-Link.com,2013-08-01 16:40:00,
2013-08-01 13:11:00,81.9,81.3,29.72,NE,45,2.2,-999.0,98,-99.99,,,0.04,Acu-Link.com,2013-08-01 17:11:00,
2013-08-01 13:41:00,86.2,85.6,29.71,NNW,337,5.3,-999.0,98,-99.99,,,0.04,Acu-Link.com,2013-08-01 17:41:00,
2013-08-01 13:56:00,86.9,86.3,29.71,West,270,3.2,-999.0,98,-99.99,,,0.04,Acu-Link.com,2013-08-01 17:56:00,
2013-08-01 15:11:00,86.9,86.3,29.69,SSW,202,0.0,-999.0,98,-99.99,,,0.04,Acu-Link.com,2013-08-01 19:11:00,
2013-08-01 15:42:00,87.8,87.2,29.69,WSW,247,1.7,-999.0,98,-99.99,,,0.04,Acu-Link.com,2013-08-01 19:42:00,
2013-08-01 15:57:00,89.2,88.6,29.69,SW,225,1.7,-999.0,98,-99.99,,,0.04,Acu-Link.com,2013-08-01 19:57:00,
2013-08-01 16:12:00,88.2,87.6,29.69,WSW,247,3.2,-999.0,98,-99.99,,,0.04,Acu-Link.com,2013-08-01 20:12:00,
2013-08-01 16:27:00,90.5,89.9,29.69,West,270,0.0,-999.0,98,-99.99,,,0.04,Acu-Link.com,2013-08-01 20:27:00,
2013-08-01 16:42:00,88.5,87.9,29.68,WNW,292,2.7,-999.0,98,-99.99,,,0.04,Acu-Link.com,2013-08-01 20:42:00,
2013-08-01 16:57:00,85.3,84.7,29.68,West,270,6.8,-999.0,98,-99.99,,,0.04,Acu-Link.com,2013-08-01 20:57:00,
2013-08-01 17:12:00,82.9,82.3,29.68,NNW,337,2.7,-999.0,98,-99.99,,,0.04,Acu-Link.com,2013-08-01 21:12:00,
2013-08-01 17:43:00,81.9,81.3,29.70,WNW,292,1.7,-999.0,98,-99.99,,,0.04,Acu-Link.com,2013-08-01 21:43:00,
2013-08-01 17:58:00,84.9,84.3,29.70,WNW,292,1.7,-999.0,98,-99.99,,,0.04,Acu-Link.com,2013-08-01 21:58:00,
2013-08-01 18:13:00,84.6,84.0,29.70,South,180,2.7,-999.0,98,-99.99,,,0.04,Acu-Link.com,2013-08-01 22:13:00,
2013-08-01 18:28:00,86.0,85.4,29.69,NW,315,2.2,-999.0,98,-99.99,,,0.04,Acu-Link.com,2013-08-01 22:28:00,
2013-08-01 18:43:00,85.5,84.9,29.69,WSW,247,3.7,-999.0,98,-99.99,,,0.04,Acu-Link.com,2013-08-01 22:43:00,
2013-08-01 18:58:00,85.5,84.9,29.69,South,180,0.0,-999.0,98,-99.99,,,0.04,Acu-Link.com,2013-08-01 22:58:00,
2013-08-01 19:13:00,84.0,83.4,29.70,SW,225,0.0,-999.0,98,-99.99,,,0.04,Acu-Link.com,2013-08-01 23:13:00,
2013-08-01 19:43:00,80.4,79.8,29.72,South,180,0.0,-999.0,98,-99.99,,,0.04,Acu-Link.com,2013-08-01 23:43:00,
2013-08-01 19:58:00,79.5,78.9,29.72,WNW,292,0.0,-999.0,98,-99.99,,,0.04,Acu-Link.com,2013-08-01 23:58:00,
2013-08-01 20:29:00,76.3,75.7,29.72,NNW,337,0.0,-999.0,98,-99.99,,,0.04,Acu-Link.com,2013-08-02 00:29:00,
2013-08-01 20:44:00,74.5,73.9,29.72,West,270,0.0,-999.0,98,-99.99,,,0.04,Acu-Link.com,2013-08-02 00:44:00,
2013-08-01 20:59:00,74.8,74.2,29.73,West,270,0.0,-999.0,98,-99.99,,,0.04,Acu-Link.com,2013-08-02 00:59:00,
2013-08-01 21:14:00,74.3,73.7,29.73,West,270,2.2,-999.0,98,-99.99,,,0.04,Acu-Link.com,2013-08-02 01:14:00,
2013-08-01 21:29:00,75.7,75.1,29.74,WNW,292,1.7,-999.0,98,-99.99,,,0.04,Acu-Link.com,2013-08-02 01:29:00,
2013-08-01 21:44:00,75.2,74.6,29.74,SW,225,0.0,-999.0,98,-99.99,,,0.04,Acu-Link.com,2013-08-02 01:44:00,
2013-08-01 21:59:00,74.1,73.5,29.76,NNE,22,0.0,-999.0,98,-99.99,,,0.04,Acu-Link.com,2013-08-02 01:59:00,
2013-08-01 22:14:00,74.1,73.5,29.76,NE,45,1.7,-999.0,98,-99.99,,,0.04,Acu-Link.com,2013-08-02 02:14:00,
2013-08-01 22:30:00,73.9,73.3,29.76,WNW,292,1.7,-999.0,98,-99.99,,,0.04,Acu-Link.com,2013-08-02 02:30:00,
2013-08-01 22:45:00,73.4,72.8,29.76,NW,315,0.0,-999.0,98,-99.99,,,0.04,Acu-Link.com,2013-08-02 02:45:00,
2013-08-01 23:00:00,72.3,71.7,29.75,ENE,67,0.0,-999.0,98,-99.99,,,0.04,Acu-Link.com,2013-08-02 03:00:00,
2013-08-01 23:15:00,70.9,70.3,29.76,ESE,112,0.0,-999.0,98,-99.99,,,0.04,Acu-Link.com,2013-08-02 03:15:00,
2013-08-01 23:45:00,69.1,68.5,29.77,WNW,292,0.0,-999.0,98,-99.99,,,0.04,Acu-Link.com,2013-08-02 03:45:00,